Time;durP1;ratioP1;P1;durP2;ratioP2;P2;SDS_P1;SDS_P2;PMS_P1;PMS_P2;Temp;Humidity;BMP_temperature;BMP_pressure;BME280_temperature;BME280_humidity;BME280_pressure;Samples;Min_cycle;Max_cycle;Signal;HPM_P1;HPM_P2
2021/09/11 00:00:20;;;;;;;;;;;24.60;51.70;;;;;;1564521;75;751;-68
2021/09/11 00:02:22;;;;;;;;;;;24.60;51.70;;;;;;1566917;74;1232;-68
2021/09/11 00:04:24;;;;;;;;;;;24.60;51.70;;;;;;1565027;74;732;-70
2021/09/11 00:06:25;;;;;;;;;;;24.60;51.70;;;;;;1558965;74;1927;-67
2021/09/11 00:08:27;;;;;;;;;;;24.60;51.70;;;;;;1561744;74;813;-67
2021/09/11 00:10:30;;;;;;;;;;;24.60;51.70;;;;;;1564152;74;1142;-67
2021/09/11 00:12:32;;;;;;;;;;;24.60;51.80;;;;;;1557236;74;775;-70
2021/09/11 00:14:34;;;;;;;;;;;24.60;51.80;;;;;;1561525;74;837;-67
2021/09/11 00:16:36;;;;;;;;;;;24.70;51.90;;;;;;1560411;74;802;-67
2021/09/11 00:18:38;;;;;;;;;;;24.60;51.80;;;;;;1562905;74;721;-69
2021/09/11 00:20:40;;;;;;;;;;;24.60;51.80;;;;;;1564552;74;1156;-67
2021/09/11 00:22:42;;;;;;;;;;;24.60;51.80;;;;;;1566049;75;768;-68
2021/09/11 00:24:43;;;;;;;;;;;24.60;51.80;;;;;;1566659;74;767;-67
2021/09/11 00:26:45;;;;;;;;;;;24.60;51.80;;;;;;1565644;74;1941;-67
2021/09/11 00:28:47;;;;;;;;;;;24.70;52.00;;;;;;1562140;74;743;-68
2021/09/11 00:30:49;;;;;;;;;;;24.60;51.80;;;;;;1567924;74;1173;-67
2021/09/11 00:32:51;;;;;;;;;;;24.60;51.80;;;;;;1563770;74;730;-67
2021/09/11 00:34:53;;;;;;;;;;;24.60;51.80;;;;;;1564136;74;759;-69
2021/09/11 00:36:55;;;;;;;;;;;24.60;51.90;;;;;;1568289;76;761;-68
2021/09/11 00:38:56;;;;;;;;;;;24.60;51.90;;;;;;1555950;74;948;-73
2021/09/11 00:40:58;;;;;;;;;;;24.60;51.90;;;;;;1529214;76;1140;-68
2021/09/11 00:43:00;;;;;;;;;;;24.60;51.90;;;;;;1520947;77;900;-69
2021/09/11 00:45:02;;;;;;;;;;;24.60;51.80;;;;;;1571861;74;784;-71
2021/09/11 00:47:04;;;;;;;;;;;24.60;51.80;;;;;;1569285;74;1942;-70
2021/09/11 00:49:06;;;;;;;;;;;24.60;51.80;;;;;;1566729;74;787;-68
2021/09/11 00:51:08;;;;;;;;;;;24.60;51.90;;;;;;1566105;75;1121;-67
2021/09/11 00:53:10;;;;;;;;;;;24.60;51.80;;;;;;1562505;74;783;-68
2021/09/11 00:55:13;;;;;;;;;;;24.60;51.80;;;;;;1566696;74;743;-67
2021/09/11 00:57:15;;;;;;;;;;;24.60;51.90;;;;;;1567633;74;730;-68
2021/09/11 00:59:16;;;;;;;;;;;24.60;51.90;;;;;;1567787;74;681;-67
2021/09/11 01:01:18;;;;;;;;;;;24.60;51.90;;;;;;1559945;75;1138;-67
2021/09/11 01:03:20;;;;;;;;;;;24.60;51.80;;;;;;1568498;74;761;-67
2021/09/11 01:05:22;;;;;;;;;;;24.60;51.80;;;;;;1560083;74;790;-71
2021/09/11 01:07:25;;;;;;;;;;;24.60;51.80;;;;;;1563488;74;1942;-69
2021/09/11 01:09:27;;;;;;;;;;;24.60;51.90;;;;;;1565472;74;725;-69
2021/09/11 01:11:28;;;;;;;;;;;24.60;52.00;;;;;;1558829;73;222802;-73
2021/09/11 01:13:31;;;;;;;;;;;24.60;52.00;;;;;;1594744;73;671;-72
2021/09/11 01:15:42;;;;;;;;;;;24.60;51.90;;;;;;1593120;73;736;-73
2021/09/11 01:17:41;;;;;;;;;;;24.60;51.90;;;;;;1588273;73;1631;-73
2021/09/11 01:19:43;;;;;;;;;;;24.60;52.00;;;;;;1586466;73;660;-73
2021/09/11 01:21:45;;;;;;;;;;;24.60;52.10;;;;;;1588047;73;1223;-73
2021/09/11 01:23:46;;;;;;;;;;;24.60;52.10;;;;;;1584996;73;629;-72
2021/09/11 01:25:48;;;;;;;;;;;24.50;52.10;;;;;;1588493;73;650;-72
2021/09/11 01:27:50;;;;;;;;;;;24.60;52.10;;;;;;1585516;73;1937;-72
2021/09/11 01:29:57;;;;;;;;;;;24.50;52.10;;;;;;1589518;73;813;-72
2021/09/11 01:31:59;;;;;;;;;;;24.60;52.10;;;;;;1586570;73;1635;-72
2021/09/11 01:34:00;;;;;;;;;;;24.60;52.10;;;;;;1581781;73;817;-72
2021/09/11 01:36:02;;;;;;;;;;;24.60;52.10;;;;;;1583419;73;669;-71
2021/09/11 01:38:04;;;;;;;;;;;24.60;52.20;;;;;;1584799;74;738;-72
2021/09/11 01:40:06;;;;;;;;;;;24.60;52.30;;;;;;1588478;73;1076;-71
2021/09/11 01:42:08;;;;;;;;;;;24.60;52.30;;;;;;1580081;73;679;-72
2021/09/11 01:44:10;;;;;;;;;;;24.60;52.20;;;;;;1586600;73;805;-71
2021/09/11 01:46:12;;;;;;;;;;;24.50;52.20;;;;;;1585985;73;783;-71
2021/09/11 01:48:14;;;;;;;;;;;24.60;52.20;;;;;;1578024;74;1929;-71
2021/09/11 01:50:16;;;;;;;;;;;24.60;52.30;;;;;;1580298;73;1137;-71
2021/09/11 01:52:19;;;;;;;;;;;24.60;52.30;;;;;;1589789;73;909;-71
2021/09/11 01:54:21;;;;;;;;;;;24.60;52.30;;;;;;1576807;73;794;-72
2021/09/11 01:56:23;;;;;;;;;;;24.60;52.30;;;;;;1585063;75;760;-72
2021/09/11 01:58:25;;;;;;;;;;;24.60;52.30;;;;;;1583994;73;646;-72
2021/09/11 02:00:27;;;;;;;;;;;24.50;52.30;;;;;;1589490;73;1123;-72
2021/09/11 02:02:29;;;;;;;;;;;24.60;52.30;;;;;;1586615;73;734;-72
2021/09/11 02:04:31;;;;;;;;;;;24.60;52.30;;;;;;1580301;74;812;-72
2021/09/11 02:06:33;;;;;;;;;;;24.70;52.40;;;;;;1578885;73;706;-72
2021/09/11 02:08:35;;;;;;;;;;;24.60;52.30;;;;;;1587923;73;1937;-72
2021/09/11 02:10:37;;;;;;;;;;;24.60;52.30;;;;;;1580520;73;1191;-72
2021/09/11 02:12:38;;;;;;;;;;;24.70;52.30;;;;;;1575959;73;768;-72
2021/09/11 02:14:40;;;;;;;;;;;24.60;52.30;;;;;;1585454;73;750;-73
2021/09/11 02:16:42;;;;;;;;;;;24.60;52.30;;;;;;1589667;74;667;-73
2021/09/11 02:18:44;;;;;;;;;;;24.60;52.10;;;;;;1587349;73;729;-73
2021/09/11 02:20:46;;;;;;;;;;;24.60;52.10;;;;;;1587822;74;1147;-72
2021/09/11 02:22:48;;;;;;;;;;;24.70;52.10;;;;;;1589938;73;716;-73
2021/09/11 02:24:50;;;;;;;;;;;24.60;51.90;;;;;;1585830;73;796;-72
2021/09/11 02:26:52;;;;;;;;;;;24.60;51.90;;;;;;1584660;73;777;-72
2021/09/11 02:28:54;;;;;;;;;;;24.60;52.00;;;;;;1586472;73;1933;-72
2021/09/11 02:30:56;;;;;;;;;;;24.60;52.10;;;;;;1588936;73;1140;-72
2021/09/11 02:32:58;;;;;;;;;;;24.50;52.10;;;;;;1583016;73;698;-72
2021/09/11 02:34:59;;;;;;;;;;;24.60;52.10;;;;;;1589160;73;677;-72
2021/09/11 02:37:01;;;;;;;;;;;24.50;52.10;;;;;;1578647;73;827;-72
2021/09/11 02:39:03;;;;;;;;;;;24.60;52.10;;;;;;1586750;73;799;-72
2021/09/11 02:41:05;;;;;;;;;;;24.50;52.10;;;;;;1579045;73;1135;-72
2021/09/11 02:43:07;;;;;;;;;;;24.60;52.20;;;;;;1575034;75;734;-73
2021/09/11 02:45:09;;;;;;;;;;;24.50;52.20;;;;;;1580256;73;744;-72
2021/09/11 02:47:11;;;;;;;;;;;24.50;52.20;;;;;;1580697;73;839;-72
2021/09/11 02:49:13;;;;;;;;;;;24.60;52.20;;;;;;1575489;73;1942;-72
2021/09/11 02:51:15;;;;;;;;;;;24.60;52.30;;;;;;1582849;73;1127;-72
2021/09/11 02:53:17;;;;;;;;;;;24.60;52.30;;;;;;1570697;73;654;-72
2021/09/11 02:55:19;;;;;;;;;;;24.50;52.40;;;;;;1589330;73;728;-72
2021/09/11 02:57:21;;;;;;;;;;;24.50;52.40;;;;;;1584217;73;767;-72
2021/09/11 02:59:23;;;;;;;;;;;24.60;52.40;;;;;;1583216;73;677;-72
2021/09/11 03:01:25;;;;;;;;;;;24.50;52.40;;;;;;1597487;73;1127;-72
2021/09/11 03:03:27;;;;;;;;;;;24.50;52.40;;;;;;1578213;73;720;-72
2021/09/11 03:05:29;;;;;;;;;;;24.50;52.40;;;;;;1589665;73;962;-72
2021/09/11 03:07:31;;;;;;;;;;;24.50;52.40;;;;;;1589084;73;777;-72
2021/09/11 03:09:32;;;;;;;;;;;24.50;52.50;;;;;;1585883;73;821;-72
2021/09/11 03:11:34;;;;;;;;;;;24.50;52.50;;;;;;1587917;73;1112;-72
2021/09/11 03:13:36;;;;;;;;;;;24.60;52.40;;;;;;1591913;73;752;-72
2021/09/11 03:15:38;;;;;;;;;;;24.60;52.60;;;;;;1541175;75;836;-72
2021/09/11 03:17:40;;;;;;;;;;;24.60;52.40;;;;;;1566928;73;741;-72
2021/09/11 03:19:42;;;;;;;;;;;24.50;52.50;;;;;;1580584;73;786;-72
2021/09/11 03:21:44;;;;;;;;;;;24.50;52.50;;;;;;1577996;73;1136;-72
2021/09/11 03:23:46;;;;;;;;;;;24.60;52.50;;;;;;1577917;73;738;-72
2021/09/11 03:25:47;;;;;;;;;;;24.60;52.60;;;;;;1582070;73;810;-72
2021/09/11 03:27:49;;;;;;;;;;;24.50;52.50;;;;;;1584714;73;1947;-72
2021/09/11 03:29:51;;;;;;;;;;;24.50;52.50;;;;;;1588992;73;736;-72
2021/09/11 03:31:53;;;;;;;;;;;24.60;52.50;;;;;;1587443;73;1108;-72
2021/09/11 03:33:55;;;;;;;;;;;24.50;52.60;;;;;;1588878;75;768;-72
2021/09/11 03:35:57;;;;;;;;;;;24.50;52.60;;;;;;1587490;73;726;-72
2021/09/11 03:37:59;;;;;;;;;;;24.50;52.60;;;;;;1581733;73;722;-72
2021/09/11 03:40:01;;;;;;;;;;;24.50;52.60;;;;;;1587195;73;1115;-72
2021/09/11 03:42:03;;;;;;;;;;;24.50;52.60;;;;;;1587349;73;756;-72
2021/09/11 03:44:05;;;;;;;;;;;24.50;52.60;;;;;;1587689;73;723;-72
2021/09/11 03:46:07;;;;;;;;;;;24.50;52.60;;;;;;1588346;75;788;-72
2021/09/11 03:48:09;;;;;;;;;;;24.50;52.60;;;;;;1587242;75;1933;-72
2021/09/11 03:50:11;;;;;;;;;;;24.50;52.60;;;;;;1587662;73;1136;-72
2021/09/11 03:52:13;;;;;;;;;;;24.40;52.60;;;;;;1582426;73;745;-72
2021/09/11 03:54:14;;;;;;;;;;;24.50;52.70;;;;;;1588462;73;652;-72
2021/09/11 03:56:16;;;;;;;;;;;24.60;52.70;;;;;;1583714;74;763;-73
2021/09/11 03:58:18;;;;;;;;;;;24.50;52.60;;;;;;1586241;75;767;-72
2021/09/11 04:00:20;;;;;;;;;;;24.50;52.70;;;;;;1582655;73;1125;-72
2021/09/11 04:02:22;;;;;;;;;;;24.50;52.70;;;;;;1582064;73;721;-72
2021/09/11 04:04:24;;;;;;;;;;;24.60;52.60;;;;;;1588136;73;766;-72
2021/09/11 04:06:26;;;;;;;;;;;24.50;52.60;;;;;;1583764;74;771;-72
2021/09/11 04:08:30;;;;;;;;;;;24.50;52.70;;;;;;1589293;73;1937;-72
2021/09/11 04:10:31;;;;;;;;;;;24.60;52.60;;;;;;1587161;75;1675;-72
2021/09/11 04:12:33;;;;;;;;;;;24.50;52.70;;;;;;1583553;73;796;-72
2021/09/11 04:14:35;;;;;;;;;;;24.50;52.70;;;;;;1586240;73;936;-72
2021/09/11 04:16:37;;;;;;;;;;;24.50;52.70;;;;;;1584650;73;718;-72
2021/09/11 04:18:39;;;;;;;;;;;24.50;52.70;;;;;;1589712;73;735;-72
2021/09/11 04:20:40;;;;;;;;;;;24.60;52.70;;;;;;1581094;73;1266;-72
2021/09/11 04:22:42;;;;;;;;;;;24.60;52.80;;;;;;1583454;73;725;-72
2021/09/11 04:24:44;;;;;;;;;;;24.50;52.80;;;;;;1582408;74;712;-72
2021/09/11 04:26:46;;;;;;;;;;;24.50;52.80;;;;;;1586191;73;743;-72
2021/09/11 04:28:48;;;;;;;;;;;24.50;52.80;;;;;;1586254;75;1915;-72
2021/09/11 04:30:50;;;;;;;;;;;24.50;52.80;;;;;;1588518;73;1169;-72
2021/09/11 04:32:52;;;;;;;;;;;24.50;52.80;;;;;;1585739;73;763;-72
2021/09/11 04:34:53;;;;;;;;;;;24.50;52.70;;;;;;1585953;75;728;-73
2021/09/11 04:36:55;;;;;;;;;;;24.60;52.70;;;;;;1587796;73;739;-72
2021/09/11 04:38:57;;;;;;;;;;;24.50;52.60;;;;;;1573399;73;676;-72
2021/09/11 04:40:59;;;;;;;;;;;24.60;52.60;;;;;;1585555;73;1160;-72
2021/09/11 04:43:03;;;;;;;;;;;24.50;52.60;;;;;;1579549;73;828;-72
2021/09/11 04:45:05;;;;;;;;;;;24.50;52.60;;;;;;1578239;75;906;-72
2021/09/11 04:47:07;;;;;;;;;;;24.60;52.70;;;;;;1578155;73;772;-72
2021/09/11 04:49:08;;;;;;;;;;;24.50;52.70;;;;;;1587903;73;1925;-72
2021/09/11 04:51:10;;;;;;;;;;;24.50;52.70;;;;;;1587985;74;1132;-72
2021/09/11 04:53:12;;;;;;;;;;;24.50;52.80;;;;;;1585149;73;733;-72
2021/09/11 04:55:14;;;;;;;;;;;24.60;52.80;;;;;;1579522;73;723;-72
2021/09/11 04:57:16;;;;;;;;;;;24.50;52.80;;;;;;1570787;75;754;-72
2021/09/11 04:59:18;;;;;;;;;;;24.60;52.90;;;;;;1567841;74;738;-72
2021/09/11 05:01:20;;;;;;;;;;;24.60;53.00;;;;;;1579721;73;1148;-72
2021/09/11 05:03:22;;;;;;;;;;;24.50;52.90;;;;;;1577181;73;735;-72
2021/09/11 05:05:23;;;;;;;;;;;24.60;53.00;;;;;;1581001;73;754;-73
2021/09/11 05:07:25;;;;;;;;;;;24.50;53.00;;;;;;1562527;75;698;-73
2021/09/11 05:09:27;;;;;;;;;;;24.50;53.00;;;;;;1552418;75;1934;-72
2021/09/11 05:11:29;;;;;;;;;;;24.50;53.00;;;;;;1536992;76;1132;-72
2021/09/11 05:13:31;;;;;;;;;;;24.60;53.00;;;;;;1552054;75;765;-72
2021/09/11 05:15:33;;;;;;;;;;;24.70;53.10;;;;;;1551334;75;749;-72
2021/09/11 05:17:35;;;;;;;;;;;24.50;52.90;;;;;;1548690;75;714;-72
2021/09/11 05:19:38;;;;;;;;;;;24.50;53.00;;;;;;1543090;75;896;-72
2021/09/11 05:21:40;;;;;;;;;;;24.50;52.90;;;;;;1548482;74;1153;-72
2021/09/11 05:23:42;;;;;;;;;;;24.50;52.80;;;;;;1555855;75;742;-72
2021/09/11 05:25:44;;;;;;;;;;;24.50;52.70;;;;;;1557557;75;700;-72
2021/09/11 05:27:46;;;;;;;;;;;24.50;52.70;;;;;;1555876;75;770;-72
2021/09/11 05:29:47;;;;;;;;;;;24.50;52.70;;;;;;1558000;75;1943;-72
2021/09/11 05:31:49;;;;;;;;;;;24.50;52.70;;;;;;1555458;74;1094;-72
2021/09/11 05:33:51;;;;;;;;;;;24.50;52.80;;;;;;1554603;75;861;-73
2021/09/11 05:35:53;;;;;;;;;;;24.50;52.80;;;;;;1547806;74;723;-72
2021/09/11 05:37:55;;;;;;;;;;;24.50;52.80;;;;;;1545410;75;795;-72
2021/09/11 05:39:57;;;;;;;;;;;24.50;52.80;;;;;;1549493;74;902;-72
2021/09/11 05:41:59;;;;;;;;;;;24.50;52.90;;;;;;1548406;74;768;-73
2021/09/11 05:44:01;;;;;;;;;;;24.60;52.90;;;;;;1555978;74;710;-72
2021/09/11 05:46:03;;;;;;;;;;;24.50;53.00;;;;;;1560448;75;825;-72
2021/09/11 05:48:05;;;;;;;;;;;24.60;53.00;;;;;;1555211;75;720;-72
2021/09/11 05:50:07;;;;;;;;;;;24.50;53.20;;;;;;1556567;75;1947;-73
2021/09/11 05:52:09;;;;;;;;;;;24.60;53.20;;;;;;1557461;75;700;-73
2021/09/11 05:54:11;;;;;;;;;;;24.60;53.20;;;;;;1548831;75;676;-73
2021/09/11 05:56:13;;;;;;;;;;;24.60;53.20;;;;;;1553531;75;784;-74
2021/09/11 05:58:15;;;;;;;;;;;24.60;53.20;;;;;;1558807;75;752;-74
2021/09/11 06:00:17;;;;;;;;;;;24.70;53.30;;;;;;1550013;75;1139;-74
2021/09/11 06:02:19;;;;;;;;;;;24.60;53.10;;;;;;1546314;75;700;-74
2021/09/11 06:04:21;;;;;;;;;;;24.60;53.00;;;;;;1551323;75;725;-73
2021/09/11 06:06:23;;;;;;;;;;;24.60;53.10;;;;;;1550239;75;603;-73
2021/09/11 06:08:25;;;;;;;;;;;24.70;53.20;;;;;;1558470;75;671;-73
2021/09/11 06:10:26;;;;;;;;;;;24.60;53.00;;;;;;1548911;75;1936;-73
2021/09/11 06:12:28;;;;;;;;;;;24.60;53.00;;;;;;1547673;75;907;-73
2021/09/11 06:14:30;;;;;;;;;;;24.60;53.10;;;;;;1547267;75;814;-73
2021/09/11 06:16:32;;;;;;;;;;;24.70;53.20;;;;;;1543698;75;733;-73
2021/09/11 06:18:34;;;;;;;;;;;24.70;53.20;;;;;;1549954;75;728;-73
2021/09/11 06:20:36;;;;;;;;;;;24.60;53.00;;;;;;1550256;75;1201;-73
2021/09/11 06:22:38;;;;;;;;;;;24.60;53.10;;;;;;1552056;75;766;-73
2021/09/11 06:24:41;;;;;;;;;;;24.70;53.10;;;;;;1551328;75;746;-73
2021/09/11 06:26:42;;;;;;;;;;;24.70;53.10;;;;;;1554710;75;655;-73
2021/09/11 06:28:44;;;;;;;;;;;24.70;53.00;;;;;;1560503;75;733;-73
2021/09/11 06:30:46;;;;;;;;;;;24.80;52.90;;;;;;1559956;75;1940;-73
2021/09/11 06:32:48;;;;;;;;;;;24.80;52.80;;;;;;1554465;75;725;-74
2021/09/11 06:34:50;;;;;;;;;;;24.80;52.70;;;;;;1551613;75;668;-73
2021/09/11 06:36:52;;;;;;;;;;;24.80;52.80;;;;;;1558437;75;741;-73
2021/09/11 06:38:54;;;;;;;;;;;24.90;52.80;;;;;;1548225;75;794;-73
2021/09/11 06:40:56;;;;;;;;;;;24.90;52.90;;;;;;1559379;75;1152;-74
2021/09/11 06:42:57;;;;;;;;;;;24.90;52.90;;;;;;1569438;75;982;-73
2021/09/11 06:44:59;;;;;;;;;;;24.90;52.80;;;;;;1558770;75;716;-74
2021/09/11 06:47:01;;;;;;;;;;;24.90;52.80;;;;;;1551132;75;713;-74
2021/09/11 06:49:03;;;;;;;;;;;25.00;52.80;;;;;;1557347;75;1946;-73
2021/09/11 06:51:05;;;;;;;;;;;24.90;53.00;;;;;;1558717;75;1141;-74
2021/09/11 06:53:07;;;;;;;;;;;24.90;53.10;;;;;;1553448;75;832;-73
2021/09/11 06:55:09;;;;;;;;;;;24.90;53.10;;;;;;1554618;75;724;-74
2021/09/11 06:57:11;;;;;;;;;;;24.90;53.10;;;;;;1552622;75;783;-74
2021/09/11 06:59:13;;;;;;;;;;;25.00;53.60;;;;;;1555990;75;755;-73
2021/09/11 07:01:15;;;;;;;;;;;24.90;53.30;;;;;;1559229;75;1149;-73
2021/09/11 07:03:17;;;;;;;;;;;25.00;53.40;;;;;;1558891;75;752;-73
2021/09/11 07:05:19;;;;;;;;;;;25.00;53.40;;;;;;1558304;75;802;-74
2021/09/11 07:07:21;;;;;;;;;;;25.00;53.30;;;;;;1557646;75;760;-73
2021/09/11 07:09:22;;;;;;;;;;;25.00;53.10;;;;;;1560746;75;1951;-74
2021/09/11 07:11:24;;;;;;;;;;;25.10;53.00;;;;;;1558511;75;1152;-73
2021/09/11 07:13:26;;;;;;;;;;;25.10;53.00;;;;;;1548360;75;759;-74
2021/09/11 07:15:28;;;;;;;;;;;25.00;53.10;;;;;;1548984;75;790;-74
2021/09/11 07:17:30;;;;;;;;;;;25.00;53.40;;;;;;1561411;75;809;-74
2021/09/11 07:19:32;;;;;;;;;;;25.10;53.40;;;;;;1556992;75;794;-74
2021/09/11 07:21:34;;;;;;;;;;;25.10;52.90;;;;;;1556100;75;1084;-74
2021/09/11 07:23:36;;;;;;;;;;;25.10;52.80;;;;;;1554674;73;223542;-58
2021/09/11 07:25:37;;;;;;;;;;;25.10;52.80;;;;;;1583977;73;703;-58
2021/09/11 07:27:39;;;;;;;;;;;25.00;52.70;;;;;;1586998;73;665;-59
2021/09/11 07:29:41;;;;;;;;;;;25.00;52.60;;;;;;1584489;73;1959;-59
2021/09/11 07:31:43;;;;;;;;;;;25.00;52.70;;;;;;1601493;73;653;-58
2021/09/11 07:33:45;;;;;;;;;;;24.90;52.60;;;;;;1573270;73;1225;-58
2021/09/11 07:35:47;;;;;;;;;;;24.90;52.60;;;;;;1576363;74;796;-59
2021/09/11 07:37:49;;;;;;;;;;;24.80;52.50;;;;;;1570583;74;801;-58
2021/09/11 07:39:51;;;;;;;;;;;24.80;52.50;;;;;;1582174;74;929;-58
2021/09/11 07:41:53;;;;;;;;;;;24.80;52.50;;;;;;1579821;74;726;-58
2021/09/11 07:43:55;;;;;;;;;;;24.80;52.60;;;;;;1568766;74;1083;-56
2021/09/11 07:45:57;;;;;;;;;;;24.80;52.60;;;;;;1580265;74;693;-57
2021/09/11 07:47:59;;;;;;;;;;;24.80;52.60;;;;;;1577876;74;744;-57
2021/09/11 07:50:00;;;;;;;;;;;24.70;52.60;;;;;;1584602;74;1942;-57
2021/09/11 07:52:02;;;;;;;;;;;24.70;52.60;;;;;;1556743;74;744;-57
2021/09/11 07:54:04;;;;;;;;;;;24.70;52.60;;;;;;1565740;74;1163;-57
2021/09/11 07:56:06;;;;;;;;;;;24.80;52.80;;;;;;1573221;74;725;-58
2021/09/11 07:58:08;;;;;;;;;;;24.80;53.40;;;;;;1578007;74;708;-56
2021/09/11 08:00:11;;;;;;;;;;;24.90;53.50;;;;;;1576625;74;705;-58
2021/09/11 08:02:12;;;;;;;;;;;24.90;53.40;;;;;;1577284;74;672;-57
2021/09/11 08:04:14;;;;;;;;;;;24.80;53.50;;;;;;1559538;74;1139;-59
2021/09/11 08:06:16;;;;;;;;;;;24.80;53.60;;;;;;1559256;74;777;-57
2021/09/11 08:08:18;;;;;;;;;;;24.80;53.70;;;;;;1559469;74;717;-56
2021/09/11 08:10:20;;;;;;;;;;;24.80;53.90;;;;;;1578657;74;1945;-57
2021/09/11 08:12:22;;;;;;;;;;;24.80;53.90;;;;;;1579188;74;748;-58
2021/09/11 08:14:24;;;;;;;;;;;24.70;54.00;;;;;;1575839;74;1145;-57
2021/09/11 08:16:26;;;;;;;;;;;24.70;54.20;;;;;;1567986;74;729;-57
2021/09/11 08:18:28;;;;;;;;;;;24.70;54.20;;;;;;1569937;74;811;-57
2021/09/11 08:20:32;;;;;;;;;;;24.80;54.30;;;;;;1563515;74;802;-57
2021/09/11 08:22:34;;;;;;;;;;;24.70;54.20;;;;;;1583289;74;1617;-57
2021/09/11 08:24:35;;;;;;;;;;;24.80;54.30;;;;;;1582421;74;1093;-57
2021/09/11 08:26:37;;;;;;;;;;;24.70;54.40;;;;;;1581072;74;760;-57
2021/09/11 08:28:39;;;;;;;;;;;24.70;54.40;;;;;;1585921;74;672;-58
2021/09/11 08:30:41;;;;;;;;;;;24.70;54.40;;;;;;1590261;74;1929;-57
2021/09/11 08:32:43;;;;;;;;;;;24.70;54.40;;;;;;1594733;74;700;-57
2021/09/11 08:34:45;;;;;;;;;;;24.70;54.40;;;;;;1579634;74;1180;-58
2021/09/11 08:36:47;;;;;;;;;;;24.70;54.40;;;;;;1578362;74;722;-56
2021/09/11 08:38:49;;;;;;;;;;;24.70;54.40;;;;;;1564536;74;735;-58
2021/09/11 08:40:51;;;;;;;;;;;24.60;54.30;;;;;;1578320;74;1081;-58
2021/09/11 08:42:53;;;;;;;;;;;24.70;54.40;;;;;;1575548;74;721;-58
2021/09/11 08:44:54;;;;;;;;;;;24.60;54.30;;;;;;1579315;74;1119;-57
2021/09/11 08:46:56;;;;;;;;;;;24.70;54.50;;;;;;1584357;74;723;-58
2021/09/11 08:48:58;;;;;;;;;;;24.60;54.50;;;;;;1586812;74;725;-57
2021/09/11 08:51:00;;;;;;;;;;;24.70;54.50;;;;;;1579816;73;1926;-57
2021/09/11 08:53:03;;;;;;;;;;;24.60;54.40;;;;;;1576838;74;1155;-57
2021/09/11 08:55:06;;;;;;;;;;;24.60;54.40;;;;;;1586058;74;671;-57
2021/09/11 08:57:12;;;;;;;;;;;24.60;54.30;;;;;;1578418;74;816;-57
2021/09/11 08:59:14;;;;;;;;;;;24.60;54.40;;;;;;1580000;74;1722;-58
2021/09/11 09:01:16;;;;;;;;;;;24.60;54.20;;;;;;1577794;74;778;-57
2021/09/11 09:03:38;;;;;;;;;;;24.60;54.10;;;;;;1576627;74;1144;-59
2021/09/11 09:05:40;;;;;;;;;;;24.60;53.90;;;;;;1569638;74;1706;-57
2021/09/11 09:07:43;;;;;;;;;;;24.60;53.60;;;;;;1573472;74;745;-57
2021/09/11 09:09:45;;;;;;;;;;;24.50;53.40;;;;;;1572403;74;790;-57
2021/09/11 09:11:47;;;;;;;;;;;24.50;53.40;;;;;;1580808;74;764;-57
2021/09/11 09:13:50;;;;;;;;;;;24.60;53.40;;;;;;1580505;74;1139;-59
2021/09/11 09:15:52;;;;;;;;;;;24.50;53.30;;;;;;1578655;74;648;-57
2021/09/11 09:17:54;;;;;;;;;;;24.50;53.10;;;;;;1583618;74;771;-58
2021/09/11 09:20:12;;;;;;;;;;;24.50;52.90;;;;;;1583799;74;744;-57
2021/09/11 09:22:15;;;;;;;;;;;24.50;52.80;;;;;;1584527;73;752;-57
2021/09/11 09:24:27;;;;;;;;;;;24.50;52.80;;;;;;1576356;74;1164;-57
2021/09/11 09:26:29;;;;;;;;;;;24.50;52.70;;;;;;1572782;74;796;-58
2021/09/11 09:28:31;;;;;;;;;;;24.40;52.50;;;;;;1586475;74;713;-57
2021/09/11 09:30:37;;;;;;;;;;;24.40;52.40;;;;;;1586687;74;1942;-58
2021/09/11 09:32:39;;;;;;;;;;;24.40;52.40;;;;;;1587507;74;717;-59
2021/09/11 09:34:48;;;;;;;;;;;24.30;52.50;;;;;;1584697;74;1139;-58
2021/09/11 09:36:50;;;;;;;;;;;24.40;52.40;;;;;;1586036;74;698;-58
2021/09/11 09:39:01;;;;;;;;;;;24.40;52.40;;;;;;1550437;75;1291;-59
2021/09/11 09:41:03;;;;;;;;;;;24.40;52.30;;;;;;1583649;74;751;-59
2021/09/11 09:43:05;;;;;;;;;;;24.30;52.30;;;;;;1545971;75;1236;-58
2021/09/11 09:45:08;;;;;;;;;;;24.30;52.20;;;;;;1581549;74;732;-59
2021/09/11 09:47:16;;;;;;;;;;;24.30;52.20;;;;;;1579277;74;811;-58
2021/09/11 09:49:22;;;;;;;;;;;24.30;52.20;;;;;;1591031;74;776;-58
2021/09/11 09:51:24;;;;;;;;;;;24.30;52.20;;;;;;1572867;74;1922;-59
2021/09/11 09:53:26;;;;;;;;;;;24.40;52.30;;;;;;1564855;74;1168;-58
2021/09/11 09:55:28;;;;;;;;;;;24.30;52.40;;;;;;1568878;74;733;-58
2021/09/11 09:57:30;;;;;;;;;;;24.30;52.60;;;;;;1570620;74;679;-59
2021/09/11 09:59:32;;;;;;;;;;;24.30;52.70;;;;;;1573515;74;712;-60
2021/09/11 10:01:33;;;;;;;;;;;24.30;52.80;;;;;;1579602;74;784;-58
2021/09/11 10:03:35;;;;;;;;;;;24.30;52.90;;;;;;1571981;74;1136;-59
2021/09/11 10:05:38;;;;;;;;;;;24.40;53.00;;;;;;1565763;74;713;-60
2021/09/11 10:07:54;;;;;;;;;;;24.30;53.20;;;;;;1572752;74;741;-60
2021/09/11 10:09:56;;;;;;;;;;;24.40;53.40;;;;;;1567678;74;908;-59
2021/09/11 10:11:58;;;;;;;;;;;24.30;53.40;;;;;;1565686;74;1951;-60
2021/09/11 10:14:00;;;;;;;;;;;24.40;53.50;;;;;;1573609;74;1147;-59
2021/09/11 10:16:06;;;;;;;;;;;24.40;53.60;;;;;;1570022;74;645;-59
2021/09/11 10:18:26;;;;;;;;;;;24.30;53.60;;;;;;1582238;74;684;-63
2021/09/11 10:20:28;;;;;;;;;;;24.30;53.70;;;;;;1564343;74;702;-58
2021/09/11 10:22:30;;;;;;;;;;;24.40;53.70;;;;;;1563161;74;714;-58
2021/09/11 10:24:33;;;;;;;;;;;24.40;53.80;;;;;;1574839;74;1093;-58
2021/09/11 10:26:45;;;;;;;;;;;24.40;53.90;;;;;;1561803;74;789;-58
2021/09/11 10:28:47;;;;;;;;;;;24.30;53.90;;;;;;1563412;74;578;-59
2021/09/11 10:31:01;;;;;;;;;;;24.40;53.90;;;;;;1529623;75;1935;-60
2021/09/11 10:33:03;;;;;;;;;;;24.50;54.00;;;;;;1528513;76;1169;-58
2021/09/11 10:35:07;;;;;;;;;;;24.50;54.00;;;;;;1530833;75;754;-60
2021/09/11 10:37:09;;;;;;;;;;;24.30;53.90;;;;;;1530893;76;731;-60
2021/09/11 10:39:11;;;;;;;;;;;24.40;54.00;;;;;;1505541;77;673;-59
2021/09/11 10:41:17;;;;;;;;;;;24.40;54.00;;;;;;1507245;77;725;-59
2021/09/11 10:43:20;;;;;;;;;;;24.40;54.00;;;;;;1502802;77;1288;-59
2021/09/11 10:45:33;;;;;;;;;;;24.50;54.20;;;;;;1505109;77;791;-59
2021/09/11 10:47:44;;;;;;;;;;;24.50;54.20;;;;;;1506167;76;1054;-59
2021/09/11 10:49:45;;;;;;;;;;;24.50;54.30;;;;;;1541847;76;739;-59
2021/09/11 10:51:55;;;;;;;;;;;24.50;54.20;;;;;;1534484;76;1936;-58
2021/09/11 10:54:08;;;;;;;;;;;24.50;54.30;;;;;;1516849;76;1146;-59
2021/09/11 10:56:24;;;;;;;;;;;24.50;54.30;;;;;;1534860;76;719;-60
2021/09/11 10:58:26;;;;;;;;;;;24.50;54.30;;;;;;1535228;76;599;-59
2021/09/11 11:00:28;;;;;;;;;;;24.60;54.20;;;;;;1538103;76;770;-59
2021/09/11 11:02:38;;;;;;;;;;;24.60;54.30;;;;;;1509955;77;662;-60
2021/09/11 11:04:41;;;;;;;;;;;24.60;54.20;;;;;;1520171;77;1144;-59
2021/09/11 11:06:43;;;;;;;;;;;24.60;54.20;;;;;;1510249;77;1532;-60
2021/09/11 11:08:45;;;;;;;;;;;24.60;54.20;;;;;;1511534;77;666;-59
2021/09/11 11:10:47;;;;;;;;;;;24.70;54.20;;;;;;1517096;77;1959;-60
2021/09/11 11:12:49;;;;;;;;;;;24.70;54.20;;;;;;1517633;77;685;-59
2021/09/11 11:14:53;;;;;;;;;;;24.60;54.00;;;;;;1510315;77;1134;-59
2021/09/11 11:16:55;;;;;;;;;;;24.60;53.90;;;;;;1515968;77;705;-58
2021/09/11 11:18:57;;;;;;;;;;;24.70;54.00;;;;;;1517492;77;716;-59
2021/09/11 11:20:59;;;;;;;;;;;24.60;53.90;;;;;;1511407;77;692;-59
2021/09/11 11:23:01;;;;;;;;;;;24.70;53.90;;;;;;1483370;78;1156;-59
2021/09/11 11:25:03;;;;;;;;;;;24.60;53.70;;;;;;1508739;77;649;-58
2021/09/11 11:27:09;;;;;;;;;;;24.70;53.80;;;;;;1500811;77;818;-58
2021/09/11 11:29:11;;;;;;;;;;;24.70;53.90;;;;;;1510021;77;645;-58
2021/09/11 11:31:14;;;;;;;;;;;24.70;53.90;;;;;;1508486;77;1936;-60
2021/09/11 11:33:16;;;;;;;;;;;24.80;53.70;;;;;;1514640;77;1093;-58
2021/09/11 11:35:18;;;;;;;;;;;24.70;53.60;;;;;;1524274;77;731;-56
2021/09/11 11:37:20;;;;;;;;;;;24.60;53.70;;;;;;1508759;77;808;-59
2021/09/11 11:39:22;;;;;;;;;;;24.70;54.00;;;;;;1503746;77;703;-59
2021/09/11 11:41:24;;;;;;;;;;;24.70;53.90;;;;;;1503552;77;785;-61
2021/09/11 11:43:26;;;;;;;;;;;24.70;54.20;;;;;;1509482;77;1186;-59
2021/09/11 11:45:28;;;;;;;;;;;24.70;54.20;;;;;;1502702;77;755;-59
2021/09/11 11:47:47;;;;;;;;;;;24.70;54.40;;;;;;1508083;77;756;-59
2021/09/11 11:49:49;;;;;;;;;;;24.80;54.50;;;;;;1533050;76;669;-59
2021/09/11 11:51:51;;;;;;;;;;;24.80;54.50;;;;;;1529053;76;1932;-59
2021/09/11 11:53:53;;;;;;;;;;;24.90;54.70;;;;;;1504147;77;1134;-59
2021/09/11 11:55:57;;;;;;;;;;;25.00;54.70;;;;;;1503949;77;674;-55
2021/09/11 11:58:18;;;;;;;;;;;24.90;54.80;;;;;;1513358;77;778;-58
2021/09/11 12:00:20;;;;;;;;;;;24.90;54.40;;;;;;1517083;77;695;-59
2021/09/11 12:02:25;;;;;;;;;;;25.00;54.60;;;;;;1514244;77;726;-59
2021/09/11 12:04:27;;;;;;;;;;;24.80;54.50;;;;;;1508088;77;1124;-59
2021/09/11 12:06:29;;;;;;;;;;;24.80;54.40;;;;;;1539560;76;756;-59
2021/09/11 12:08:36;;;;;;;;;;;24.90;54.60;;;;;;1534563;76;703;-59
2021/09/11 12:10:36;;;;;;;;;;;24.90;54.50;;;;;;1541604;76;1557;-59